createdAt,value
2022-08-20T00:02:16.838Z,14.32
2022-08-20T00:04:45.005Z,12.77
2022-08-20T00:07:13.928Z,12.88
2022-08-20T00:09:41.856Z,11.85
2022-08-20T00:12:11.758Z,11.52
2022-08-20T00:14:39.939Z,11.85
2022-08-20T00:17:07.424Z,12.20
2022-08-20T00:19:35.166Z,10.65
2022-08-20T00:22:02.584Z,10.57
2022-08-20T00:24:30.388Z,11.15
2022-08-20T00:27:00.860Z,11.32
2022-08-20T00:29:28.843Z,11.68
2022-08-20T00:31:56.536Z,11.82
2022-08-20T00:34:24.337Z,10.90
2022-08-20T00:36:51.781Z,13.50
2022-08-20T00:39:19.229Z,9.98
2022-08-20T00:41:46.542Z,9.63
2022-08-20T00:44:20.101Z,17.42
2022-08-20T00:46:47.826Z,9.82
2022-08-20T00:49:24.968Z,9.93
2022-08-20T00:51:58.026Z,9.68
2022-08-20T00:54:33.920Z,9.35
2022-08-20T00:57:09.930Z,55.58
2022-08-20T00:59:41.460Z,9.98
2022-08-20T01:02:12.792Z,9.52
2022-08-20T01:04:40.917Z,10.82
2022-08-20T01:07:08.401Z,10.55
2022-08-20T01:09:58.211Z,46.83
2022-08-20T01:12:26.042Z,9.40
2022-08-20T01:14:57.024Z,10.40
2022-08-20T01:17:27.253Z,10.05
2022-08-20T01:20:08.675Z,10.15
2022-08-20T01:23:13.749Z,22.60
2022-08-20T01:25:44.111Z,9.43
2022-08-20T01:28:15.201Z,9.95
2022-08-20T01:30:43.476Z,9.30
2022-08-20T01:33:10.911Z,11.02
2022-08-20T01:35:40.971Z,11.63
2022-08-20T01:38:09.771Z,11.13
2022-08-20T01:41:15.692Z,12.10
2022-08-20T01:43:45.546Z,12.63
2022-08-20T01:46:16.471Z,11.73
2022-08-20T01:48:45.102Z,13.55
2022-08-20T01:51:31.636Z,13.32
2022-08-20T01:54:00.193Z,12.43
2022-08-20T01:56:31.031Z,12.35
2022-08-20T01:59:01.704Z,11.25
2022-08-20T02:01:45.988Z,12.40
2022-08-20T02:04:15.680Z,15.32
2022-08-20T02:06:56.581Z,14.02
2022-08-20T02:09:27.699Z,17.67
2022-08-20T02:11:55.611Z,18.02
2022-08-20T02:14:23.231Z,15.10
2022-08-20T02:16:55.000Z,12.05
2022-08-20T02:19:38.693Z,13.98
2022-08-20T02:22:35.774Z,15.75
2022-08-20T02:25:07.249Z,15.02
2022-08-20T02:27:34.994Z,12.32
2022-08-20T02:30:03.949Z,11.65
2022-08-20T02:32:34.389Z,14.93
2022-08-20T02:35:04.472Z,13.88
2022-08-20T02:37:32.134Z,15.02
2022-08-20T02:39:59.777Z,16.90
2022-08-20T02:42:27.539Z,14.32
2022-08-20T02:44:58.207Z,17.10
2022-08-20T02:47:27.697Z,14.60
2022-08-20T02:49:55.806Z,14.75
2022-08-20T02:52:23.292Z,14.05
2022-08-20T02:54:50.711Z,12.88
2022-08-20T02:57:22.990Z,17.58
2022-08-20T02:59:52.441Z,13.52
2022-08-20T03:02:19.800Z,13.43
2022-08-20T03:04:47.071Z,13.38
2022-08-20T03:07:15.009Z,13.50
2022-08-20T03:09:42.346Z,14.18
2022-08-20T03:12:10.013Z,13.25
2022-08-20T03:14:37.759Z,12.27
2022-08-20T03:17:05.505Z,14.32
2022-08-20T03:19:32.913Z,15.48
2022-08-20T03:22:01.378Z,13.02
2022-08-20T03:24:28.852Z,12.35
2022-08-20T03:26:56.272Z,14.05
2022-08-20T03:29:23.643Z,12.10
2022-08-20T03:31:50.948Z,12.88
2022-08-20T03:34:18.120Z,12.55
2022-08-20T03:36:45.531Z,11.88
2022-08-20T03:39:13.584Z,11.73
2022-08-20T03:41:40.800Z,12.00
2022-08-20T03:44:10.568Z,12.02
2022-08-20T03:46:39.131Z,11.68
2022-08-20T03:49:06.605Z,13.45
2022-08-20T03:51:56.298Z,11.70
2022-08-20T03:54:22.755Z,10.80
2022-08-20T03:56:50.213Z,11.25
2022-08-20T03:59:17.401Z,13.32
2022-08-20T04:01:46.696Z,11.10
2022-08-20T04:04:15.396Z,10.85
2022-08-20T04:06:43.335Z,14.23
2022-08-20T04:09:12.353Z,12.57
2022-08-20T04:11:41.080Z,11.73
2022-08-20T04:14:11.044Z,10.40
2022-08-20T04:16:40.422Z,11.95
2022-08-20T04:19:08.797Z,11.00
2022-08-20T04:21:37.254Z,13.93
2022-08-20T04:24:06.240Z,13.63
2022-08-20T04:26:35.514Z,12.18
2022-08-20T04:29:03.328Z,10.73
2022-08-20T04:31:34.035Z,14.55
2022-08-20T04:34:08.826Z,11.40
2022-08-20T04:36:36.577Z,9.90
2022-08-20T04:39:04.374Z,10.10
2022-08-20T04:41:32.024Z,10.30
2022-08-20T04:44:01.783Z,9.68
2022-08-20T04:46:29.574Z,12.68
2022-08-20T04:48:58.031Z,10.15
2022-08-20T04:51:26.946Z,9.80
2022-08-20T04:53:57.432Z,9.52
2022-08-20T04:56:28.680Z,9.65
2022-08-20T04:58:58.878Z,9.50
2022-08-20T05:01:27.970Z,11.15
2022-08-20T05:03:56.455Z,9.88
2022-08-20T05:06:28.701Z,12.63
2022-08-20T05:08:58.253Z,11.00
2022-08-20T05:11:32.961Z,9.45
2022-08-20T05:14:03.162Z,10.63
2022-08-20T05:16:30.674Z,10.25
2022-08-20T05:18:58.117Z,8.40
2022-08-20T05:21:28.674Z,9.95
2022-08-20T05:23:56.095Z,9.20
2022-08-20T05:26:26.834Z,9.32
2022-08-20T05:28:58.998Z,10.07
2022-08-20T05:31:31.271Z,15.73
2022-08-20T05:34:11.061Z,12.20
2022-08-20T05:36:50.839Z,9.15
2022-08-20T05:39:21.177Z,10.50
2022-08-20T05:41:51.558Z,10.65
2022-08-20T05:44:19.964Z,9.85
2022-08-20T05:46:48.654Z,12.55
2022-08-20T05:49:22.127Z,12.13
2022-08-20T05:51:51.718Z,11.25
2022-08-20T05:54:19.558Z,10.90
2022-08-20T05:56:47.834Z,11.77
2022-08-20T05:59:15.114Z,12.15
2022-08-20T06:01:43.390Z,11.27
2022-08-20T06:04:32.216Z,12.70
2022-08-20T06:07:05.914Z,11.18
2022-08-20T06:09:34.175Z,11.35
2022-08-20T06:12:06.740Z,10.18
2022-08-20T06:14:34.055Z,10.68
2022-08-20T06:17:10.091Z,10.88
2022-08-20T06:19:44.075Z,11.15
2022-08-20T06:22:21.203Z,10.63
2022-08-20T06:24:53.996Z,14.35
2022-08-20T06:27:22.834Z,11.50
2022-08-20T06:29:51.760Z,13.77
2022-08-20T06:32:21.219Z,11.48
2022-08-20T06:35:04.196Z,11.52
2022-08-20T06:37:32.748Z,11.60
2022-08-20T06:40:13.635Z,14.80
2022-08-20T06:42:48.193Z,14.02
2022-08-20T06:45:37.755Z,13.75
2022-08-20T06:48:11.410Z,12.07
2022-08-20T06:50:47.405Z,12.60
2022-08-20T06:53:20.703Z,13.38
2022-08-20T06:55:52.527Z,13.07
2022-08-20T06:58:37.086Z,17.17
2022-08-20T07:01:12.325Z,14.23
2022-08-20T07:03:42.219Z,12.63
2022-08-20T07:06:23.741Z,14.77
2022-08-20T07:08:51.200Z,18.02
2022-08-20T07:11:22.478Z,16.48
2022-08-20T07:13:56.935Z,13.55
2022-08-20T07:16:25.116Z,13.35
2022-08-20T07:18:52.466Z,14.30
2022-08-20T07:21:20.275Z,14.73
2022-08-20T07:23:49.198Z,15.20
2022-08-20T07:26:17.853Z,14.05
2022-08-20T07:28:45.756Z,14.77
2022-08-20T07:31:31.723Z,14.00
2022-08-20T07:34:04.786Z,13.48
2022-08-20T07:36:32.074Z,13.02
2022-08-20T07:38:59.716Z,13.90
2022-08-20T07:41:34.591Z,13.07
2022-08-20T07:44:02.917Z,15.25
2022-08-20T07:46:31.841Z,12.80
2022-08-20T07:48:59.837Z,13.88
2022-08-20T07:51:28.862Z,15.27
2022-08-20T07:53:58.518Z,12.95
2022-08-20T07:56:28.018Z,14.40
2022-08-20T07:58:59.617Z,14.32
2022-08-20T08:01:31.802Z,15.95
2022-08-20T08:04:00.650Z,15.07
2022-08-20T08:06:31.316Z,13.52
2022-08-20T08:09:05.562Z,17.70
2022-08-20T08:11:35.778Z,14.88
2022-08-20T08:14:06.425Z,14.13
2022-08-20T08:16:35.522Z,15.45
2022-08-20T08:19:08.459Z,14.25
2022-08-20T08:21:35.973Z,14.43
2022-08-20T08:24:04.060Z,17.02
2022-08-20T08:26:31.536Z,15.00
2022-08-20T08:28:59.060Z,14.32
2022-08-20T08:31:27.995Z,15.57
2022-08-20T08:33:56.580Z,15.73
2022-08-20T08:36:26.598Z,14.82
2022-08-20T08:38:56.851Z,18.95
2022-08-20T08:41:34.418Z,13.23
2022-08-20T08:44:14.870Z,13.52
2022-08-20T08:46:48.656Z,14.07
2022-08-20T08:49:24.679Z,17.35
2022-08-20T08:52:11.924Z,13.50
2022-08-20T08:54:43.836Z,16.10
2022-08-20T08:57:11.578Z,14.57
2022-08-20T08:59:52.053Z,15.02
2022-08-20T09:02:28.948Z,15.02
2022-08-20T09:05:00.646Z,14.82
2022-08-20T09:07:31.767Z,14.10
2022-08-20T09:10:01.598Z,14.18
2022-08-20T11:17:27.929Z,20.00
2022-08-20T11:19:57.699Z,20.30
2022-08-20T11:22:26.646Z,20.48
2022-08-20T11:24:54.952Z,19.77
2022-08-20T11:27:32.928Z,19.90
2022-08-20T11:30:00.895Z,19.25
2022-08-20T11:32:28.775Z,18.77
2022-08-20T11:34:56.198Z,18.63
2022-08-20T11:37:26.249Z,18.55
2022-08-20T11:39:54.198Z,18.60
2022-08-20T11:42:23.112Z,19.35
2022-08-20T11:44:51.726Z,21.13
2022-08-20T11:47:26.609Z,19.02
2022-08-20T11:50:08.174Z,20.00
2022-08-20T11:52:36.170Z,18.63
2022-08-20T11:55:04.575Z,19.38
2022-08-20T11:57:37.231Z,17.73
2022-08-20T12:00:13.947Z,16.73
2022-08-20T12:02:44.443Z,16.02
2022-08-20T12:05:12.730Z,16.90
2022-08-20T12:07:41.251Z,17.02
2022-08-20T12:10:10.440Z,16.27
2022-08-20T12:12:39.767Z,18.15
2022-08-20T12:15:11.481Z,16.08
2022-08-20T12:17:58.271Z,16.60
2022-08-20T12:20:26.559Z,14.93
2022-08-20T12:23:14.379Z,14.60
2022-08-20T12:25:42.397Z,15.55
2022-08-20T12:28:16.259Z,14.95
2022-08-20T12:30:44.872Z,16.35
2022-08-20T12:33:16.720Z,14.85
2022-08-20T12:35:44.151Z,15.25
2022-08-20T12:38:12.289Z,17.63
2022-08-20T12:40:41.141Z,16.83
2022-08-20T12:43:10.159Z,16.23
2022-08-20T12:45:38.122Z,17.90
2022-08-20T12:48:14.672Z,15.32
2022-08-20T12:50:44.359Z,18.10
2022-08-20T12:53:12.544Z,15.52
2022-08-20T12:55:41.440Z,14.65
2022-08-20T12:58:14.841Z,14.30
2022-08-20T13:00:50.305Z,15.23
2022-08-20T13:03:26.064Z,14.88
2022-08-20T13:06:50.663Z,14.55
2022-08-20T13:09:23.710Z,14.43
2022-08-20T13:11:59.483Z,15.20
2022-08-20T13:14:31.888Z,14.40
2022-08-20T13:17:03.455Z,15.35
2022-08-20T13:19:35.035Z,16.02
2022-08-20T13:22:31.610Z,16.75
2022-08-20T13:25:06.331Z,17.67
2022-08-20T13:27:39.532Z,17.83
2022-08-20T13:30:21.358Z,18.17
2022-08-20T13:36:46.432Z,18.35
2022-08-20T13:39:21.906Z,23.27
2022-08-20T13:42:29.570Z,18.58
2022-08-20T13:44:58.332Z,18.25
2022-08-20T13:47:43.007Z,17.27
2022-08-20T13:50:21.857Z,18.50
2022-08-20T13:52:51.556Z,17.02
2022-08-20T13:55:26.837Z,17.30
2022-08-20T13:58:05.607Z,18.45
2022-08-20T14:00:39.909Z,20.55
2022-08-20T14:03:31.822Z,18.50
2022-08-20T14:06:08.053Z,18.63
2022-08-20T14:08:39.006Z,14.57
2022-08-20T14:11:12.835Z,16.42
2022-08-20T14:13:49.916Z,15.63
2022-08-20T14:16:27.400Z,16.25
2022-08-20T14:18:58.040Z,17.02
2022-08-20T14:21:41.384Z,18.10
2022-08-20T14:25:07.267Z,14.18
2022-08-20T14:28:50.050Z,15.10
2022-08-20T14:31:22.410Z,15.15
2022-08-20T14:33:56.509Z,15.55
2022-08-20T14:36:29.206Z,16.05
2022-08-20T14:39:02.398Z,17.08
2022-08-20T14:41:32.418Z,15.43
2022-08-20T14:44:33.320Z,14.43
2022-08-20T14:47:31.601Z,15.13
2022-08-20T14:50:11.822Z,15.00
2022-08-20T14:53:04.544Z,15.55
2022-08-20T14:58:27.361Z,17.08
2022-08-20T15:01:20.031Z,14.70
2022-08-20T15:04:01.402Z,16.92
2022-08-20T15:09:32.994Z,17.20
2022-08-20T15:14:50.335Z,14.77
2022-08-20T15:17:30.291Z,15.90
2022-08-20T15:20:36.582Z,14.40
2022-08-20T15:26:17.377Z,17.52
2022-08-20T15:28:45.149Z,18.13
2022-08-20T15:31:18.040Z,20.15
2022-08-20T15:33:53.287Z,15.85
2022-08-20T15:36:24.697Z,16.77
2022-08-20T15:38:56.480Z,16.77
2022-08-20T15:41:30.880Z,16.65
2022-08-20T15:44:06.444Z,17.08
2022-08-20T15:47:38.804Z,16.60
2022-08-20T15:50:18.982Z,18.80
2022-08-20T15:52:57.473Z,16.00
2022-08-20T15:55:44.975Z,14.95
2022-08-20T15:58:37.759Z,14.27
2022-08-20T16:01:34.060Z,13.43
2022-08-20T16:04:39.827Z,13.02
2022-08-20T16:07:22.182Z,13.65
2022-08-20T16:10:15.635Z,16.23
2022-08-20T16:12:50.059Z,16.10
2022-08-20T16:15:33.626Z,15.55
2022-08-20T16:18:28.887Z,14.32
2022-08-20T16:21:03.052Z,14.23
2022-08-20T16:23:41.717Z,14.05
2022-08-20T16:26:32.814Z,15.55
2022-08-20T16:29:30.293Z,13.15
2022-08-20T16:32:10.999Z,9.07
2022-08-20T16:34:48.926Z,9.13
2022-08-20T16:37:39.140Z,9.88
2022-08-20T16:40:10.250Z,9.35
2022-08-20T16:42:42.347Z,9.57
2022-08-20T16:45:25.433Z,9.63
2022-08-20T16:48:02.432Z,9.18
2022-08-20T16:50:46.961Z,9.40
2022-08-20T16:53:25.134Z,9.65
2022-08-20T16:55:58.790Z,9.13
2022-08-20T16:58:32.688Z,8.65
2022-08-20T17:01:29.848Z,8.85
2022-08-20T17:04:24.904Z,8.27
2022-08-20T17:07:04.774Z,8.60
2022-08-20T17:09:45.493Z,8.43
2022-08-20T17:12:30.977Z,8.50
2022-08-20T17:15:06.830Z,8.60
2022-08-20T17:17:38.037Z,8.82
2022-08-20T17:20:43.150Z,8.75
2022-08-20T17:23:24.297Z,9.05
2022-08-20T17:26:06.095Z,9.95
2022-08-20T17:28:36.712Z,10.15
2022-08-20T17:31:06.430Z,9.88
2022-08-20T17:33:50.140Z,9.50
2022-08-20T17:36:22.435Z,8.90
2022-08-20T17:39:00.000Z,9.35
2022-08-20T17:41:36.510Z,9.10
2022-08-20T17:44:36.275Z,9.70
2022-08-20T17:47:12.816Z,9.45
2022-08-20T17:50:02.250Z,9.02
2022-08-20T17:53:07.234Z,9.55
2022-08-20T17:56:00.852Z,8.75
2022-08-20T17:59:59.490Z,9.13
2022-08-20T18:02:24.657Z,8.68
2022-08-20T18:05:40.916Z,9.32
2022-08-20T18:09:05.595Z,10.18
2022-08-20T18:12:07.801Z,10.13
2022-08-20T18:16:04.399Z,10.32
2022-08-20T18:19:25.727Z,10.10
2022-08-20T18:22:36.833Z,9.65
2022-08-20T18:25:38.770Z,10.75
2022-08-20T18:28:44.716Z,10.10
2022-08-20T18:31:38.514Z,10.52
2022-08-20T18:34:35.148Z,9.90
2022-08-20T18:37:21.974Z,10.30
2022-08-20T18:40:18.299Z,10.23
2022-08-20T18:42:49.252Z,9.93
2022-08-20T18:45:36.345Z,10.05
2022-08-20T18:48:25.611Z,10.13
2022-08-20T18:50:59.548Z,11.57
2022-08-20T18:53:36.349Z,11.20
2022-08-20T18:56:21.342Z,11.63
2022-08-20T18:59:04.916Z,11.77
2022-08-20T19:01:39.361Z,12.07
2022-08-20T19:04:35.297Z,11.70
2022-08-20T19:07:07.343Z,12.52
2022-08-20T19:10:27.882Z,12.35
2022-08-20T19:13:42.662Z,12.68
2022-08-20T19:17:01.474Z,12.55
2022-08-20T19:19:33.124Z,12.10
2022-08-20T19:22:05.344Z,13.30
2022-08-20T19:24:56.630Z,12.13
2022-08-20T19:30:44.330Z,12.65
2022-08-20T19:31:13.594Z,12.93
2022-08-20T19:33:13.647Z,11.55
2022-08-20T19:35:53.984Z,10.90
2022-08-20T19:38:30.998Z,10.23
2022-08-20T19:41:11.352Z,9.68
2022-08-20T19:43:52.234Z,8.57
2022-08-20T19:46:30.645Z,8.95
2022-08-20T19:49:27.351Z,8.88
2022-08-20T19:52:22.465Z,8.27
2022-08-20T19:55:55.443Z,7.38
2022-08-20T19:58:32.573Z,6.97
2022-08-20T20:01:23.537Z,7.55
2022-08-20T20:04:05.154Z,6.75
2022-08-20T20:06:51.455Z,6.45
2022-08-20T20:09:32.329Z,6.90
2022-08-20T20:12:22.741Z,6.40
2022-08-20T20:14:55.570Z,6.60
2022-08-20T20:17:33.403Z,6.68
2022-08-20T20:23:51.123Z,5.60
2022-08-20T20:26:27.123Z,6.90
2022-08-20T20:29:07.477Z,5.68
2022-08-20T20:32:04.332Z,5.55
2022-08-20T20:35:30.106Z,5.50
2022-08-20T20:38:06.766Z,4.90
2022-08-20T20:40:52.067Z,5.18
2022-08-20T20:43:47.584Z,4.68
2022-08-20T20:46:26.562Z,5.00
2022-08-20T20:49:02.792Z,4.40
2022-08-20T20:52:20.324Z,4.07
2022-08-20T20:54:53.101Z,4.35
2022-08-20T21:00:30.642Z,4.35
2022-08-20T21:03:36.654Z,4.00
2022-08-20T21:06:06.649Z,4.05
2022-08-20T21:08:39.232Z,4.10
2022-08-20T21:11:20.516Z,3.95
2022-08-20T21:13:50.724Z,3.72
2022-08-20T21:16:24.181Z,7.03
2022-08-20T21:19:17.515Z,3.17
2022-08-20T21:21:55.719Z,3.78
2022-08-20T21:24:38.881Z,3.55
2022-08-20T21:27:09.745Z,3.20
2022-08-20T21:29:43.538Z,3.28
2022-08-20T21:32:17.467Z,3.45
2022-08-20T21:34:51.308Z,2.80
2022-08-20T21:37:54.678Z,3.15
2022-08-20T21:40:50.685Z,4.35
2022-08-20T21:43:24.637Z,2.33
2022-08-20T21:45:58.825Z,2.80
2022-08-20T21:48:31.651Z,2.65
2022-08-20T21:51:01.802Z,3.72
2022-08-20T21:53:40.684Z,2.65
2022-08-20T21:56:16.764Z,2.33
2022-08-20T21:58:56.950Z,2.47
2022-08-20T22:01:29.465Z,3.97
2022-08-20T22:04:10.604Z,2.33
2022-08-20T22:06:38.990Z,2.80
2022-08-20T22:09:08.394Z,4.45
2022-08-20T22:11:37.531Z,2.67
2022-08-20T22:14:11.241Z,3.40
2022-08-20T22:16:39.265Z,2.42
2022-08-20T22:19:16.253Z,2.85
2022-08-20T22:21:44.569Z,2.47
2022-08-20T22:24:13.995Z,2.80
2022-08-20T22:26:43.088Z,2.58
2022-08-20T22:29:12.009Z,5.00
2022-08-20T22:31:41.901Z,3.35
2022-08-20T22:34:10.861Z,4.53
2022-08-20T22:36:39.077Z,3.03
2022-08-20T22:39:06.983Z,3.55
2022-08-20T22:41:35.682Z,2.92
2022-08-20T22:44:03.310Z,2.78
2022-08-20T22:46:34.377Z,3.47
2022-08-20T22:49:02.611Z,3.03
2022-08-20T22:51:35.002Z,3.08
2022-08-20T22:54:04.491Z,4.07
2022-08-20T22:56:32.177Z,2.55
2022-08-20T22:59:02.940Z,3.30
2022-08-20T23:01:33.656Z,2.85
2022-08-20T23:04:26.271Z,2.58
2022-08-20T23:06:54.533Z,2.35
2022-08-20T23:09:22.346Z,2.97
2022-08-20T23:11:50.452Z,3.20
2022-08-20T23:14:18.330Z,3.05
2022-08-20T23:16:47.953Z,1.90
2022-08-20T23:19:23.304Z,2.22
2022-08-20T23:21:51.866Z,4.18
2022-08-20T23:24:19.971Z,3.03
2022-08-20T23:26:52.563Z,3.08
2022-08-20T23:29:25.915Z,1.83
2022-08-20T23:31:55.567Z,3.55
2022-08-20T23:34:23.997Z,2.97
2022-08-20T23:36:52.585Z,4.97
2022-08-20T23:39:20.631Z,4.47
2022-08-20T23:41:48.330Z,3.13
2022-08-20T23:44:26.291Z,2.35
2022-08-20T23:47:01.384Z,3.88
2022-08-20T23:49:30.183Z,2.22
2022-08-20T23:52:00.343Z,3.63
2022-08-20T23:54:30.051Z,1.92
2022-08-20T23:56:57.699Z,2.55
2022-08-20T23:59:25.721Z,3.05
